sensor_id;sensor_type;location;lat;lon;timestamp;P1;durP1;ratioP1;P2;durP2;ratioP2
6537;SDS011;3302;52.508;13.454;2023-03-20T00:00:15;4.53;;;3.60;;
6537;SDS011;3302;52.508;13.454;2023-03-20T00:02:49;4.77;;;3.37;;
6537;SDS011;3302;52.508;13.454;2023-03-20T00:05:15;4.20;;;3.23;;
6537;SDS011;3302;52.508;13.454;2023-03-20T00:07:43;4.93;;;2.90;;
6537;SDS011;3302;52.508;13.454;2023-03-20T00:10:09;4.50;;;3.10;;
6537;SDS011;3302;52.508;13.454;2023-03-20T00:12:35;4.87;;;3.10;;
6537;SDS011;3302;52.508;13.454;2023-03-20T00:15:02;5.17;;;3.10;;
6537;SDS011;3302;52.508;13.454;2023-03-20T00:17:30;4.67;;;3.00;;
6537;SDS011;3302;52.508;13.454;2023-03-20T00:19:56;5.77;;;3.17;;
6537;SDS011;3302;52.508;13.454;2023-03-20T00:22:22;4.90;;;3.10;;
6537;SDS011;3302;52.508;13.454;2023-03-20T00:24:48;3.37;;;2.97;;
6537;SDS011;3302;52.508;13.454;2023-03-20T00:27:15;6.20;;;2.90;;
6537;SDS011;3302;52.508;13.454;2023-03-20T00:29:41;3.90;;;3.50;;
6537;SDS011;3302;52.508;13.454;2023-03-20T00:32:11;5.60;;;3.27;;
6537;SDS011;3302;52.508;13.454;2023-03-20T00:34:38;4.57;;;3.07;;
6537;SDS011;3302;52.508;13.454;2023-03-20T00:37:04;3.30;;;2.77;;
6537;SDS011;3302;52.508;13.454;2023-03-20T00:39:30;3.50;;;3.20;;
6537;SDS011;3302;52.508;13.454;2023-03-20T00:42:00;5.47;;;3.23;;
6537;SDS011;3302;52.508;13.454;2023-03-20T00:44:31;5.60;;;3.40;;
6537;SDS011;3302;52.508;13.454;2023-03-20T00:46:59;4.17;;;3.47;;
6537;SDS011;3302;52.508;13.454;2023-03-20T00:49:28;4.60;;;2.93;;
6537;SDS011;3302;52.508;13.454;2023-03-20T00:51:59;4.83;;;3.20;;
6537;SDS011;3302;52.508;13.454;2023-03-20T00:54:26;4.13;;;3.00;;
6537;SDS011;3302;52.508;13.454;2023-03-20T00:56:54;6.73;;;4.10;;
6537;SDS011;3302;52.508;13.454;2023-03-20T00:59:27;3.73;;;3.37;;
6537;SDS011;3302;52.508;13.454;2023-03-20T01:01:56;5.70;;;4.00;;
6537;SDS011;3302;52.508;13.454;2023-03-20T01:04:23;5.67;;;3.73;;
6537;SDS011;3302;52.508;13.454;2023-03-20T01:06:49;4.97;;;3.33;;
6537;SDS011;3302;52.508;13.454;2023-03-20T01:09:15;4.20;;;3.07;;
6537;SDS011;3302;52.508;13.454;2023-03-20T01:11:41;4.63;;;3.30;;
6537;SDS011;3302;52.508;13.454;2023-03-20T01:14:11;4.80;;;3.30;;
6537;SDS011;3302;52.508;13.454;2023-03-20T01:16:40;6.47;;;3.50;;
6537;SDS011;3302;52.508;13.454;2023-03-20T01:19:08;6.00;;;3.50;;
6537;SDS011;3302;52.508;13.454;2023-03-20T01:21:36;3.50;;;3.13;;
6537;SDS011;3302;52.508;13.454;2023-03-20T01:24:02;5.00;;;3.50;;
6537;SDS011;3302;52.508;13.454;2023-03-20T01:26:30;4.77;;;3.60;;
6537;SDS011;3302;52.508;13.454;2023-03-20T01:31:42;5.77;;;3.23;;
6537;SDS011;3302;52.508;13.454;2023-03-20T01:34:11;4.80;;;3.60;;
6537;SDS011;3302;52.508;13.454;2023-03-20T01:36:37;3.80;;;3.37;;
6537;SDS011;3302;52.508;13.454;2023-03-20T01:39:04;6.97;;;3.70;;
6537;SDS011;3302;52.508;13.454;2023-03-20T01:41:30;4.73;;;3.60;;
6537;SDS011;3302;52.508;13.454;2023-03-20T01:43:57;4.47;;;3.57;;
6537;SDS011;3302;52.508;13.454;2023-03-20T01:46:31;6.43;;;4.30;;
6537;SDS011;3302;52.508;13.454;2023-03-20T01:51:53;6.03;;;4.70;;
6537;SDS011;3302;52.508;13.454;2023-03-20T01:54:24;6.40;;;5.70;;
6537;SDS011;3302;52.508;13.454;2023-03-20T01:57:01;7.60;;;5.47;;
6537;SDS011;3302;52.508;13.454;2023-03-20T01:59:45;5.47;;;4.60;;
6537;SDS011;3302;52.508;13.454;2023-03-20T02:02:16;8.10;;;5.10;;
6537;SDS011;3302;52.508;13.454;2023-03-20T02:04:47;8.03;;;5.07;;
6537;SDS011;3302;52.508;13.454;2023-03-20T02:07:17;7.10;;;5.00;;
6537;SDS011;3302;52.508;13.454;2023-03-20T02:09:46;6.47;;;5.07;;
6537;SDS011;3302;52.508;13.454;2023-03-20T02:12:13;7.40;;;4.93;;
6537;SDS011;3302;52.508;13.454;2023-03-20T02:14:39;7.73;;;5.10;;
6537;SDS011;3302;52.508;13.454;2023-03-20T02:17:05;7.93;;;4.83;;
6537;SDS011;3302;52.508;13.454;2023-03-20T02:31:29;4.83;;;3.93;;
6537;SDS011;3302;52.508;13.454;2023-03-20T02:34:15;5.53;;;4.20;;
6537;SDS011;3302;52.508;13.454;2023-03-20T02:45:42;4.67;;;3.80;;
6537;SDS011;3302;52.508;13.454;2023-03-20T02:51:10;5.27;;;4.40;;
6537;SDS011;3302;52.508;13.454;2023-03-20T02:59:22;5.90;;;4.47;;
6537;SDS011;3302;52.508;13.454;2023-03-20T03:02:15;5.33;;;3.70;;
6537;SDS011;3302;52.508;13.454;2023-03-20T03:04:47;5.00;;;4.10;;
6537;SDS011;3302;52.508;13.454;2023-03-20T03:07:20;5.60;;;3.40;;
6537;SDS011;3302;52.508;13.454;2023-03-20T03:09:52;7.67;;;3.93;;
6537;SDS011;3302;52.508;13.454;2023-03-20T03:12:31;4.97;;;4.10;;
6537;SDS011;3302;52.508;13.454;2023-03-20T03:15:04;4.77;;;4.10;;
6537;SDS011;3302;52.508;13.454;2023-03-20T03:17:37;5.63;;;4.20;;
6537;SDS011;3302;52.508;13.454;2023-03-20T03:20:06;5.60;;;4.40;;
6537;SDS011;3302;52.508;13.454;2023-03-20T03:22:38;4.23;;;3.83;;
6537;SDS011;3302;52.508;13.454;2023-03-20T03:25:04;5.67;;;3.97;;
6537;SDS011;3302;52.508;13.454;2023-03-20T03:27:35;5.37;;;3.90;;
6537;SDS011;3302;52.508;13.454;2023-03-20T03:30:09;5.40;;;4.03;;
6537;SDS011;3302;52.508;13.454;2023-03-20T03:32:49;5.90;;;4.47;;
6537;SDS011;3302;52.508;13.454;2023-03-20T03:35:34;5.47;;;4.10;;
6537;SDS011;3302;52.508;13.454;2023-03-20T03:38:01;5.03;;;4.10;;
6537;SDS011;3302;52.508;13.454;2023-03-20T03:43:26;5.87;;;4.27;;
6537;SDS011;3302;52.508;13.454;2023-03-20T03:46:05;6.40;;;4.67;;
6537;SDS011;3302;52.508;13.454;2023-03-20T03:48:39;5.83;;;4.73;;
6537;SDS011;3302;52.508;13.454;2023-03-20T03:51:13;5.57;;;4.47;;
6537;SDS011;3302;52.508;13.454;2023-03-20T03:53:51;6.10;;;5.23;;
6537;SDS011;3302;52.508;13.454;2023-03-20T03:56:22;5.93;;;5.30;;
6537;SDS011;3302;52.508;13.454;2023-03-20T03:58:53;4.80;;;4.40;;
6537;SDS011;3302;52.508;13.454;2023-03-20T04:01:22;5.77;;;5.17;;
6537;SDS011;3302;52.508;13.454;2023-03-20T04:03:51;5.33;;;4.83;;
6537;SDS011;3302;52.508;13.454;2023-03-20T04:06:21;5.00;;;4.50;;
6537;SDS011;3302;52.508;13.454;2023-03-20T04:08:47;5.97;;;4.97;;
6537;SDS011;3302;52.508;13.454;2023-03-20T04:11:17;6.40;;;5.47;;
6537;SDS011;3302;52.508;13.454;2023-03-20T04:13:45;6.80;;;5.87;;
6537;SDS011;3302;52.508;13.454;2023-03-20T04:16:13;6.87;;;5.93;;
6537;SDS011;3302;52.508;13.454;2023-03-20T04:18:40;7.77;;;6.13;;
6537;SDS011;3302;52.508;13.454;2023-03-20T04:21:06;7.77;;;5.93;;
6537;SDS011;3302;52.508;13.454;2023-03-20T04:23:32;7.47;;;6.13;;
6537;SDS011;3302;52.508;13.454;2023-03-20T04:25:58;7.77;;;6.73;;
6537;SDS011;3302;52.508;13.454;2023-03-20T04:28:24;8.13;;;6.30;;
6537;SDS011;3302;52.508;13.454;2023-03-20T04:30:53;6.90;;;6.20;;
6537;SDS011;3302;52.508;13.454;2023-03-20T04:33:20;7.67;;;6.37;;
6537;SDS011;3302;52.508;13.454;2023-03-20T04:35:47;7.57;;;6.50;;
6537;SDS011;3302;52.508;13.454;2023-03-20T04:38:12;10.67;;;7.37;;
6537;SDS011;3302;52.508;13.454;2023-03-20T04:40:38;9.87;;;7.37;;
6537;SDS011;3302;52.508;13.454;2023-03-20T04:43:04;9.57;;;7.67;;
6537;SDS011;3302;52.508;13.454;2023-03-20T04:45:30;8.63;;;7.67;;
6537;SDS011;3302;52.508;13.454;2023-03-20T04:47:56;10.07;;;7.60;;
6537;SDS011;3302;52.508;13.454;2023-03-20T04:50:22;8.83;;;7.57;;
6537;SDS011;3302;52.508;13.454;2023-03-20T04:52:48;8.67;;;7.77;;
6537;SDS011;3302;52.508;13.454;2023-03-20T04:55:14;8.87;;;6.97;;
6537;SDS011;3302;52.508;13.454;2023-03-20T04:57:40;8.90;;;7.27;;
6537;SDS011;3302;52.508;13.454;2023-03-20T05:00:06;9.67;;;8.07;;
6537;SDS011;3302;52.508;13.454;2023-03-20T05:02:32;9.70;;;7.50;;
6537;SDS011;3302;52.508;13.454;2023-03-20T05:04:58;7.87;;;7.07;;
6537;SDS011;3302;52.508;13.454;2023-03-20T05:07:24;8.00;;;7.20;;
6537;SDS011;3302;52.508;13.454;2023-03-20T05:09:50;10.00;;;7.63;;
6537;SDS011;3302;52.508;13.454;2023-03-20T05:12:16;8.90;;;7.50;;
6537;SDS011;3302;52.508;13.454;2023-03-20T05:14:42;8.93;;;7.50;;
6537;SDS011;3302;52.508;13.454;2023-03-20T05:17:07;7.83;;;7.03;;
6537;SDS011;3302;52.508;13.454;2023-03-20T05:19:33;8.60;;;7.47;;
6537;SDS011;3302;52.508;13.454;2023-03-20T05:21:59;9.37;;;7.33;;
6537;SDS011;3302;52.508;13.454;2023-03-20T05:24:25;9.77;;;7.33;;
6537;SDS011;3302;52.508;13.454;2023-03-20T05:26:53;7.80;;;6.83;;
6537;SDS011;3302;52.508;13.454;2023-03-20T05:29:19;8.17;;;7.30;;
6537;SDS011;3302;52.508;13.454;2023-03-20T05:31:45;9.20;;;7.63;;
6537;SDS011;3302;52.508;13.454;2023-03-20T05:34:11;7.30;;;6.60;;
6537;SDS011;3302;52.508;13.454;2023-03-20T05:36:37;7.77;;;7.07;;
6537;SDS011;3302;52.508;13.454;2023-03-20T05:39:03;7.67;;;6.73;;
6537;SDS011;3302;52.508;13.454;2023-03-20T05:41:30;7.80;;;7.00;;
6537;SDS011;3302;52.508;13.454;2023-03-20T05:43:56;11.83;;;6.50;;
6537;SDS011;3302;52.508;13.454;2023-03-20T05:46:22;7.70;;;6.93;;
6537;SDS011;3302;52.508;13.454;2023-03-20T05:48:48;7.90;;;6.87;;
6537;SDS011;3302;52.508;13.454;2023-03-20T05:51:13;8.30;;;7.40;;
6537;SDS011;3302;52.508;13.454;2023-03-20T05:53:39;9.03;;;8.00;;
6537;SDS011;3302;52.508;13.454;2023-03-20T05:56:05;8.57;;;7.67;;
6537;SDS011;3302;52.508;13.454;2023-03-20T05:58:31;9.37;;;8.20;;
6537;SDS011;3302;52.508;13.454;2023-03-20T06:00:57;9.30;;;8.30;;
6537;SDS011;3302;52.508;13.454;2023-03-20T06:03:23;9.33;;;8.30;;
6537;SDS011;3302;52.508;13.454;2023-03-20T06:05:49;9.97;;;8.90;;
6537;SDS011;3302;52.508;13.454;2023-03-20T06:08:14;10.70;;;9.07;;
6537;SDS011;3302;52.508;13.454;2023-03-20T06:10:41;9.73;;;8.73;;
6537;SDS011;3302;52.508;13.454;2023-03-20T06:13:06;11.50;;;9.73;;
6537;SDS011;3302;52.508;13.454;2023-03-20T06:15:32;11.30;;;9.50;;
6537;SDS011;3302;52.508;13.454;2023-03-20T06:17:58;14.07;;;10.37;;
6537;SDS011;3302;52.508;13.454;2023-03-20T06:20:24;11.30;;;10.10;;
6537;SDS011;3302;52.508;13.454;2023-03-20T06:22:50;13.10;;;10.17;;
6537;SDS011;3302;52.508;13.454;2023-03-20T06:25:17;13.13;;;10.90;;
6537;SDS011;3302;52.508;13.454;2023-03-20T06:27:47;15.03;;;12.90;;
6537;SDS011;3302;52.508;13.454;2023-03-20T06:30:13;15.80;;;13.10;;
6537;SDS011;3302;52.508;13.454;2023-03-20T06:32:40;16.83;;;13.13;;
6537;SDS011;3302;52.508;13.454;2023-03-20T06:35:06;17.37;;;14.00;;
6537;SDS011;3302;52.508;13.454;2023-03-20T06:37:33;16.33;;;13.37;;
6537;SDS011;3302;52.508;13.454;2023-03-20T06:40:00;20.60;;;14.37;;
6537;SDS011;3302;52.508;13.454;2023-03-20T06:42:27;16.70;;;14.40;;
6537;SDS011;3302;52.508;13.454;2023-03-20T06:44:53;17.43;;;15.20;;
6537;SDS011;3302;52.508;13.454;2023-03-20T06:47:20;19.53;;;15.20;;
6537;SDS011;3302;52.508;13.454;2023-03-20T06:49:47;22.63;;;14.87;;
6537;SDS011;3302;52.508;13.454;2023-03-20T06:52:14;21.73;;;14.83;;
6537;SDS011;3302;52.508;13.454;2023-03-20T06:54:41;20.93;;;14.87;;
6537;SDS011;3302;52.508;13.454;2023-03-20T06:57:07;19.30;;;14.80;;
6537;SDS011;3302;52.508;13.454;2023-03-20T06:59:33;22.83;;;14.17;;
6537;SDS011;3302;52.508;13.454;2023-03-20T07:01:59;20.27;;;16.33;;
6537;SDS011;3302;52.508;13.454;2023-03-20T07:04:25;19.90;;;15.83;;
6537;SDS011;3302;52.508;13.454;2023-03-20T07:06:51;23.63;;;15.80;;
6537;SDS011;3302;52.508;13.454;2023-03-20T07:09:17;26.10;;;16.70;;
6537;SDS011;3302;52.508;13.454;2023-03-20T07:11:43;25.90;;;18.17;;
6537;SDS011;3302;52.508;13.454;2023-03-20T07:14:10;28.50;;;19.70;;
6537;SDS011;3302;52.508;13.454;2023-03-20T07:16:35;25.00;;;18.80;;
6537;SDS011;3302;52.508;13.454;2023-03-20T07:19:01;28.93;;;20.20;;
6537;SDS011;3302;52.508;13.454;2023-03-20T07:21:27;31.63;;;21.40;;
6537;SDS011;3302;52.508;13.454;2023-03-20T07:23:54;31.60;;;22.77;;
6537;SDS011;3302;52.508;13.454;2023-03-20T07:26:20;26.30;;;20.30;;
6537;SDS011;3302;52.508;13.454;2023-03-20T07:28:45;27.67;;;20.93;;
6537;SDS011;3302;52.508;13.454;2023-03-20T07:31:17;29.20;;;20.90;;
6537;SDS011;3302;52.508;13.454;2023-03-20T07:33:48;29.07;;;22.20;;
6537;SDS011;3302;52.508;13.454;2023-03-20T07:36:14;29.13;;;19.60;;
6537;SDS011;3302;52.508;13.454;2023-03-20T07:38:40;28.50;;;20.60;;
6537;SDS011;3302;52.508;13.454;2023-03-20T07:44:34;24.43;;;16.43;;
6537;SDS011;3302;52.508;13.454;2023-03-20T07:47:00;25.57;;;18.53;;
6537;SDS011;3302;52.508;13.454;2023-03-20T07:49:25;25.30;;;17.67;;
6537;SDS011;3302;52.508;13.454;2023-03-20T07:51:51;27.27;;;18.77;;
6537;SDS011;3302;52.508;13.454;2023-03-20T07:54:19;28.87;;;17.87;;
6537;SDS011;3302;52.508;13.454;2023-03-20T07:56:45;29.23;;;19.47;;
6537;SDS011;3302;52.508;13.454;2023-03-20T07:59:11;24.27;;;16.73;;
6537;SDS011;3302;52.508;13.454;2023-03-20T08:01:37;23.53;;;14.57;;
6537;SDS011;3302;52.508;13.454;2023-03-20T08:04:03;24.17;;;16.23;;
6537;SDS011;3302;52.508;13.454;2023-03-20T08:06:29;25.67;;;17.87;;
6537;SDS011;3302;52.508;13.454;2023-03-20T08:08:55;26.27;;;17.07;;
6537;SDS011;3302;52.508;13.454;2023-03-20T08:11:20;28.20;;;17.63;;
6537;SDS011;3302;52.508;13.454;2023-03-20T08:13:46;28.10;;;18.40;;
6537;SDS011;3302;52.508;13.454;2023-03-20T08:16:12;28.23;;;16.47;;
6537;SDS011;3302;52.508;13.454;2023-03-20T08:18:38;23.43;;;16.60;;
6537;SDS011;3302;52.508;13.454;2023-03-20T08:21:04;22.47;;;15.03;;
6537;SDS011;3302;52.508;13.454;2023-03-20T08:23:30;24.47;;;15.97;;
6537;SDS011;3302;52.508;13.454;2023-03-20T08:25:56;23.53;;;16.03;;
6537;SDS011;3302;52.508;13.454;2023-03-20T08:28:21;26.90;;;17.07;;
6537;SDS011;3302;52.508;13.454;2023-03-20T08:30:47;23.60;;;16.20;;
6537;SDS011;3302;52.508;13.454;2023-03-20T08:33:14;28.07;;;17.10;;
6537;SDS011;3302;52.508;13.454;2023-03-20T08:35:41;24.70;;;16.20;;
6537;SDS011;3302;52.508;13.454;2023-03-20T08:38:11;23.83;;;14.50;;
6537;SDS011;3302;52.508;13.454;2023-03-20T08:40:41;21.57;;;14.70;;
6537;SDS011;3302;52.508;13.454;2023-03-20T08:43:07;19.73;;;13.77;;
6537;SDS011;3302;52.508;13.454;2023-03-20T08:45:33;20.40;;;13.47;;
6537;SDS011;3302;52.508;13.454;2023-03-20T08:47:59;21.43;;;14.60;;
6537;SDS011;3302;52.508;13.454;2023-03-20T08:50:25;22.57;;;14.60;;
6537;SDS011;3302;52.508;13.454;2023-03-20T08:52:51;22.87;;;15.20;;
6537;SDS011;3302;52.508;13.454;2023-03-20T08:55:17;26.70;;;16.37;;
6537;SDS011;3302;52.508;13.454;2023-03-20T08:57:44;21.63;;;15.27;;
6537;SDS011;3302;52.508;13.454;2023-03-20T09:00:11;22.20;;;16.00;;
6537;SDS011;3302;52.508;13.454;2023-03-20T09:02:40;24.37;;;16.03;;
6537;SDS011;3302;52.508;13.454;2023-03-20T09:05:07;25.73;;;17.17;;
6537;SDS011;3302;52.508;13.454;2023-03-20T09:07:33;21.30;;;15.03;;
6537;SDS011;3302;52.508;13.454;2023-03-20T09:09:59;19.90;;;13.87;;
6537;SDS011;3302;52.508;13.454;2023-03-20T09:12:25;21.97;;;14.10;;
6537;SDS011;3302;52.508;13.454;2023-03-20T09:14:50;22.33;;;13.13;;
6537;SDS011;3302;52.508;13.454;2023-03-20T09:17:16;20.63;;;14.17;;
6537;SDS011;3302;52.508;13.454;2023-03-20T09:19:42;24.00;;;15.20;;
6537;SDS011;3302;52.508;13.454;2023-03-20T09:22:11;19.80;;;13.60;;
6537;SDS011;3302;52.508;13.454;2023-03-20T09:24:38;21.33;;;13.13;;
6537;SDS011;3302;52.508;13.454;2023-03-20T09:27:04;18.37;;;12.43;;
6537;SDS011;3302;52.508;13.454;2023-03-20T09:29:31;17.30;;;13.43;;
6537;SDS011;3302;52.508;13.454;2023-03-20T09:31:57;14.83;;;10.70;;
6537;SDS011;3302;52.508;13.454;2023-03-20T09:34:23;17.00;;;11.17;;
6537;SDS011;3302;52.508;13.454;2023-03-20T09:36:49;15.43;;;11.20;;
6537;SDS011;3302;52.508;13.454;2023-03-20T09:39:15;15.23;;;10.80;;
6537;SDS011;3302;52.508;13.454;2023-03-20T09:41:45;12.60;;;9.37;;
6537;SDS011;3302;52.508;13.454;2023-03-20T09:47:18;15.67;;;9.33;;
6537;SDS011;3302;52.508;13.454;2023-03-20T09:52:34;14.47;;;10.13;;
6537;SDS011;3302;52.508;13.454;2023-03-20T09:55:04;16.30;;;9.80;;
6537;SDS011;3302;52.508;13.454;2023-03-20T09:57:39;14.63;;;9.43;;
6537;SDS011;3302;52.508;13.454;2023-03-20T10:00:14;14.40;;;10.50;;
6537;SDS011;3302;52.508;13.454;2023-03-20T10:02:47;13.90;;;9.60;;
6537;SDS011;3302;52.508;13.454;2023-03-20T10:05:32;13.37;;;9.37;;
6537;SDS011;3302;52.508;13.454;2023-03-20T10:08:03;12.90;;;9.13;;
6537;SDS011;3302;52.508;13.454;2023-03-20T10:10:35;14.80;;;10.37;;
6537;SDS011;3302;52.508;13.454;2023-03-20T10:18:47;10.53;;;7.73;;
6537;SDS011;3302;52.508;13.454;2023-03-20T10:21:26;13.10;;;7.30;;
6537;SDS011;3302;52.508;13.454;2023-03-20T10:24:04;11.67;;;7.70;;
6537;SDS011;3302;52.508;13.454;2023-03-20T10:26:35;11.00;;;7.40;;
6537;SDS011;3302;52.508;13.454;2023-03-20T10:29:26;9.57;;;6.77;;
6537;SDS011;3302;52.508;13.454;2023-03-20T10:32:23;11.50;;;7.30;;
6537;SDS011;3302;52.508;13.454;2023-03-20T10:35:10;9.97;;;6.90;;
6537;SDS011;3302;52.508;13.454;2023-03-20T10:40:39;10.20;;;7.13;;
6537;SDS011;3302;52.508;13.454;2023-03-20T10:43:17;9.93;;;6.90;;
6537;SDS011;3302;52.508;13.454;2023-03-20T10:45:52;12.80;;;7.13;;
6537;SDS011;3302;52.508;13.454;2023-03-20T10:48:32;9.67;;;6.80;;
6537;SDS011;3302;52.508;13.454;2023-03-20T10:51:02;9.70;;;6.70;;
6537;SDS011;3302;52.508;13.454;2023-03-20T10:56:19;9.43;;;6.40;;
6537;SDS011;3302;52.508;13.454;2023-03-20T10:59:11;10.33;;;6.27;;
6537;SDS011;3302;52.508;13.454;2023-03-20T11:01:46;9.03;;;6.70;;
6537;SDS011;3302;52.508;13.454;2023-03-20T11:04:12;11.23;;;6.63;;
6537;SDS011;3302;52.508;13.454;2023-03-20T11:07:21;8.40;;;6.20;;
6537;SDS011;3302;52.508;13.454;2023-03-20T11:09:36;10.93;;;6.50;;
6537;SDS011;3302;52.508;13.454;2023-03-20T11:12:02;8.47;;;5.93;;
6537;SDS011;3302;52.508;13.454;2023-03-20T11:14:33;9.00;;;6.77;;
6537;SDS011;3302;52.508;13.454;2023-03-20T11:17:02;7.50;;;5.67;;
6537;SDS011;3302;52.508;13.454;2023-03-20T11:19:31;8.23;;;5.97;;
6537;SDS011;3302;52.508;13.454;2023-03-20T11:22:01;9.23;;;5.63;;
6537;SDS011;3302;52.508;13.454;2023-03-20T11:24:36;9.13;;;6.43;;
6537;SDS011;3302;52.508;13.454;2023-03-20T11:27:14;11.60;;;7.07;;
6537;SDS011;3302;52.508;13.454;2023-03-20T11:29:42;10.00;;;6.13;;
6537;SDS011;3302;52.508;13.454;2023-03-20T11:34:41;8.77;;;5.70;;
6537;SDS011;3302;52.508;13.454;2023-03-20T11:37:21;9.17;;;5.70;;
6537;SDS011;3302;52.508;13.454;2023-03-20T11:42:31;9.07;;;6.03;;
6537;SDS011;3302;52.508;13.454;2023-03-20T11:45:02;7.77;;;5.80;;
6537;SDS011;3302;52.508;13.454;2023-03-20T11:47:31;9.07;;;6.23;;
6537;SDS011;3302;52.508;13.454;2023-03-20T11:50:00;8.10;;;5.87;;
6537;SDS011;3302;52.508;13.454;2023-03-20T11:52:32;8.73;;;5.90;;
6537;SDS011;3302;52.508;13.454;2023-03-20T11:55:05;8.90;;;6.00;;
6537;SDS011;3302;52.508;13.454;2023-03-20T11:57:46;8.50;;;6.03;;
6537;SDS011;3302;52.508;13.454;2023-03-20T12:00:19;7.97;;;5.60;;
6537;SDS011;3302;52.508;13.454;2023-03-20T12:02:47;7.83;;;6.30;;
6537;SDS011;3302;52.508;13.454;2023-03-20T12:05:17;9.67;;;6.57;;
6537;SDS011;3302;52.508;13.454;2023-03-20T12:08:02;8.07;;;6.00;;
6537;SDS011;3302;52.508;13.454;2023-03-20T12:10:35;9.03;;;6.27;;
6537;SDS011;3302;52.508;13.454;2023-03-20T12:13:09;8.63;;;6.13;;
6537;SDS011;3302;52.508;13.454;2023-03-20T12:15:37;7.90;;;5.73;;
6537;SDS011;3302;52.508;13.454;2023-03-20T12:21:15;8.70;;;5.90;;
6537;SDS011;3302;52.508;13.454;2023-03-20T12:23:58;8.77;;;5.50;;
6537;SDS011;3302;52.508;13.454;2023-03-20T12:26:50;9.00;;;6.37;;
6537;SDS011;3302;52.508;13.454;2023-03-20T12:29:24;10.80;;;6.20;;
6537;SDS011;3302;52.508;13.454;2023-03-20T12:31:59;8.93;;;6.23;;
6537;SDS011;3302;52.508;13.454;2023-03-20T12:34:42;10.43;;;7.17;;
6537;SDS011;3302;52.508;13.454;2023-03-20T12:37:11;9.63;;;6.37;;
6537;SDS011;3302;52.508;13.454;2023-03-20T12:39:47;9.33;;;6.27;;
6537;SDS011;3302;52.508;13.454;2023-03-20T12:47:48;8.90;;;6.13;;
6537;SDS011;3302;52.508;13.454;2023-03-20T12:50:40;9.80;;;5.97;;
6537;SDS011;3302;52.508;13.454;2023-03-20T12:53:13;10.20;;;6.13;;
6537;SDS011;3302;52.508;13.454;2023-03-20T13:01:38;10.63;;;7.07;;
6537;SDS011;3302;52.508;13.454;2023-03-20T13:07:17;11.80;;;7.17;;
6537;SDS011;3302;52.508;13.454;2023-03-20T13:28:04;11.83;;;8.07;;
6537;SDS011;3302;52.508;13.454;2023-03-20T13:42:00;12.00;;;7.70;;
6537;SDS011;3302;52.508;13.454;2023-03-20T13:44:30;10.43;;;7.70;;
6537;SDS011;3302;52.508;13.454;2023-03-20T13:46:59;12.30;;;8.10;;
6537;SDS011;3302;52.508;13.454;2023-03-20T13:49:38;10.77;;;8.30;;
6537;SDS011;3302;52.508;13.454;2023-03-20T13:52:15;10.93;;;8.17;;
6537;SDS011;3302;52.508;13.454;2023-03-20T14:00:34;12.77;;;8.03;;
6537;SDS011;3302;52.508;13.454;2023-03-20T14:03:35;14.27;;;8.73;;
6537;SDS011;3302;52.508;13.454;2023-03-20T14:06:16;13.60;;;8.20;;
6537;SDS011;3302;52.508;13.454;2023-03-20T14:08:46;13.37;;;8.80;;
6537;SDS011;3302;52.508;13.454;2023-03-20T14:13:55;18.83;;;12.43;;
6537;SDS011;3302;52.508;13.454;2023-03-20T14:16:26;11.93;;;10.50;;
6537;SDS011;3302;52.508;13.454;2023-03-20T14:19:15;14.67;;;9.97;;
6537;SDS011;3302;52.508;13.454;2023-03-20T14:21:44;13.30;;;8.93;;
6537;SDS011;3302;52.508;13.454;2023-03-20T14:24:16;12.57;;;8.90;;
6537;SDS011;3302;52.508;13.454;2023-03-20T14:26:48;12.37;;;9.57;;
6537;SDS011;3302;52.508;13.454;2023-03-20T14:29:20;13.63;;;9.10;;
6537;SDS011;3302;52.508;13.454;2023-03-20T14:34:47;14.07;;;9.13;;
6537;SDS011;3302;52.508;13.454;2023-03-20T14:37:28;15.57;;;9.17;;
6537;SDS011;3302;52.508;13.454;2023-03-20T14:42:53;12.73;;;9.23;;
6537;SDS011;3302;52.508;13.454;2023-03-20T14:45:28;12.67;;;8.87;;
6537;SDS011;3302;52.508;13.454;2023-03-20T14:50:29;13.87;;;9.50;;
6537;SDS011;3302;52.508;13.454;2023-03-20T15:03:39;14.73;;;9.57;;
6537;SDS011;3302;52.508;13.454;2023-03-20T15:06:07;15.00;;;10.07;;
6537;SDS011;3302;52.508;13.454;2023-03-20T15:08:35;13.27;;;10.33;;
6537;SDS011;3302;52.508;13.454;2023-03-20T15:11:08;16.33;;;9.87;;
6537;SDS011;3302;52.508;13.454;2023-03-20T15:13:36;15.27;;;10.23;;
6537;SDS011;3302;52.508;13.454;2023-03-20T15:16:08;16.33;;;10.07;;
6537;SDS011;3302;52.508;13.454;2023-03-20T15:18:37;14.97;;;10.20;;
6537;SDS011;3302;52.508;13.454;2023-03-20T15:21:18;15.43;;;10.13;;
6537;SDS011;3302;52.508;13.454;2023-03-20T15:23:47;15.27;;;10.03;;
6537;SDS011;3302;52.508;13.454;2023-03-20T15:26:13;13.63;;;10.00;;
6537;SDS011;3302;52.508;13.454;2023-03-20T15:28:42;14.83;;;9.57;;
6537;SDS011;3302;52.508;13.454;2023-03-20T15:31:22;13.57;;;9.70;;
6537;SDS011;3302;52.508;13.454;2023-03-20T15:33:57;15.43;;;10.27;;
6537;SDS011;3302;52.508;13.454;2023-03-20T15:36:26;14.87;;;10.00;;
6537;SDS011;3302;52.508;13.454;2023-03-20T15:41:57;15.80;;;10.67;;
6537;SDS011;3302;52.508;13.454;2023-03-20T15:44:26;13.60;;;9.70;;
6537;SDS011;3302;52.508;13.454;2023-03-20T15:47:00;14.03;;;9.93;;
6537;SDS011;3302;52.508;13.454;2023-03-20T15:49:39;16.87;;;10.47;;
6537;SDS011;3302;52.508;13.454;2023-03-20T15:52:06;15.03;;;10.30;;
6537;SDS011;3302;52.508;13.454;2023-03-20T15:54:52;13.27;;;10.07;;
6537;SDS011;3302;52.508;13.454;2023-03-20T15:57:19;14.43;;;10.47;;
6537;SDS011;3302;52.508;13.454;2023-03-20T15:59:50;14.93;;;10.87;;
6537;SDS011;3302;52.508;13.454;2023-03-20T16:02:16;15.40;;;10.27;;
6537;SDS011;3302;52.508;13.454;2023-03-20T16:04:44;14.20;;;10.23;;
6537;SDS011;3302;52.508;13.454;2023-03-20T16:07:22;13.93;;;10.30;;
6537;SDS011;3302;52.508;13.454;2023-03-20T16:09:52;14.37;;;10.43;;
6537;SDS011;3302;52.508;13.454;2023-03-20T16:12:19;14.73;;;9.90;;
6537;SDS011;3302;52.508;13.454;2023-03-20T16:14:45;13.13;;;9.63;;
6537;SDS011;3302;52.508;13.454;2023-03-20T16:17:13;14.37;;;9.70;;
6537;SDS011;3302;52.508;13.454;2023-03-20T16:19:40;13.97;;;9.93;;
6537;SDS011;3302;52.508;13.454;2023-03-20T16:24:44;13.87;;;9.33;;
6537;SDS011;3302;52.508;13.454;2023-03-20T16:27:14;13.13;;;9.20;;
6537;SDS011;3302;52.508;13.454;2023-03-20T16:29:49;12.53;;;9.50;;
6537;SDS011;3302;52.508;13.454;2023-03-20T16:37:52;11.20;;;9.13;;
6537;SDS011;3302;52.508;13.454;2023-03-20T16:40:35;13.10;;;9.90;;
6537;SDS011;3302;52.508;13.454;2023-03-20T16:45:43;13.40;;;9.53;;
6537;SDS011;3302;52.508;13.454;2023-03-20T16:50:39;14.17;;;9.80;;
6537;SDS011;3302;52.508;13.454;2023-03-20T16:53:09;14.03;;;9.57;;
6537;SDS011;3302;52.508;13.454;2023-03-20T16:55:36;15.47;;;9.80;;
6537;SDS011;3302;52.508;13.454;2023-03-20T16:58:08;11.97;;;9.37;;
6537;SDS011;3302;52.508;13.454;2023-03-20T17:00:42;13.17;;;9.53;;
6537;SDS011;3302;52.508;13.454;2023-03-20T17:03:36;12.83;;;9.33;;
6537;SDS011;3302;52.508;13.454;2023-03-20T17:08:50;13.20;;;9.63;;
6537;SDS011;3302;52.508;13.454;2023-03-20T17:11:29;14.50;;;10.10;;
6537;SDS011;3302;52.508;13.454;2023-03-20T17:13:57;12.67;;;9.33;;
6537;SDS011;3302;52.508;13.454;2023-03-20T17:16:23;12.93;;;9.63;;
6537;SDS011;3302;52.508;13.454;2023-03-20T17:19:01;11.87;;;9.40;;
6537;SDS011;3302;52.508;13.454;2023-03-20T17:21:29;13.53;;;9.93;;
6537;SDS011;3302;52.508;13.454;2023-03-20T17:23:56;13.43;;;10.20;;
6537;SDS011;3302;52.508;13.454;2023-03-20T17:26:22;12.90;;;9.73;;
6537;SDS011;3302;52.508;13.454;2023-03-20T17:28:48;14.87;;;9.87;;
6537;SDS011;3302;52.508;13.454;2023-03-20T17:31:15;12.23;;;9.30;;
6537;SDS011;3302;52.508;13.454;2023-03-20T17:33:42;13.27;;;9.50;;
6537;SDS011;3302;52.508;13.454;2023-03-20T17:36:16;12.83;;;9.60;;
6537;SDS011;3302;52.508;13.454;2023-03-20T17:38:45;14.30;;;9.70;;
6537;SDS011;3302;52.508;13.454;2023-03-20T17:41:12;15.03;;;9.80;;
6537;SDS011;3302;52.508;13.454;2023-03-20T17:43:39;11.07;;;9.53;;